createdAt,value
2018-12-15T00:00:54.147Z,48.48
2018-12-15T00:01:55.928Z,48.14
2018-12-15T00:02:57.813Z,48.18
2018-12-15T00:04:00.612Z,48.28
2018-12-15T00:05:02.416Z,48.03
2018-12-15T00:06:04.199Z,48.20
2018-12-15T00:07:05.968Z,47.98
2018-12-15T00:08:07.733Z,47.83
2018-12-15T00:09:09.508Z,47.81
2018-12-15T00:10:11.276Z,48.33
2018-12-15T00:11:13.037Z,47.92
2018-12-15T00:12:14.787Z,48.29
2018-12-15T00:13:16.549Z,48.03
2018-12-15T00:14:18.318Z,48.06
2018-12-15T00:15:20.116Z,48.02
2018-12-15T00:16:21.869Z,48.49
2018-12-15T00:17:23.629Z,48.17
2018-12-15T00:18:25.475Z,47.64
2018-12-15T00:19:27.264Z,48.23
2018-12-15T00:20:29.038Z,47.92
2018-12-15T00:21:30.796Z,48.42
2018-12-15T00:22:33.468Z,47.98
2018-12-15T00:23:35.993Z,48.07
2018-12-15T00:24:38.156Z,48.17
2018-12-15T00:25:39.928Z,48.35
2018-12-15T00:26:41.692Z,48.19
2018-12-15T00:27:44.374Z,47.92
2018-12-15T00:28:46.142Z,48.14
2018-12-15T00:29:48.131Z,48.30
2018-12-15T00:30:50.232Z,47.74
2018-12-15T00:31:52.014Z,47.76
2018-12-15T00:32:53.780Z,47.97
2018-12-15T00:33:55.645Z,48.36
2018-12-15T00:34:57.406Z,47.94
2018-12-15T00:35:59.237Z,47.66
2018-12-15T00:37:01.011Z,47.76
2018-12-15T00:38:02.799Z,48.09
2018-12-15T00:39:04.828Z,48.06
2018-12-15T00:40:06.618Z,48.44
2018-12-15T00:41:08.423Z,47.84
2018-12-15T00:42:10.204Z,47.96
2018-12-15T00:43:11.987Z,48.17
2018-12-15T00:44:13.772Z,48.36
2018-12-15T00:45:15.520Z,48.07
2018-12-15T00:46:17.306Z,47.99
2018-12-15T00:47:19.059Z,48.55
2018-12-15T00:48:20.921Z,48.24
2018-12-15T00:49:22.673Z,47.84
2018-12-15T00:50:24.435Z,48.12
2018-12-15T00:51:26.234Z,48.00
2018-12-15T00:52:28.002Z,48.28
2018-12-15T00:53:29.795Z,48.50
2018-12-15T00:54:31.574Z,48.35
2018-12-15T00:55:33.361Z,48.13
2018-12-15T00:56:35.152Z,47.95
2018-12-15T00:57:36.935Z,48.28
2018-12-15T00:58:38.743Z,48.17
2018-12-15T00:59:40.507Z,48.24
2018-12-15T01:00:42.274Z,48.48
2018-12-15T01:01:44.075Z,47.84
2018-12-15T01:02:45.865Z,48.24
2018-12-15T01:03:47.647Z,48.11
2018-12-15T01:04:50.151Z,47.84
2018-12-15T01:05:51.909Z,48.11
2018-12-15T01:06:53.689Z,47.72
2018-12-15T01:07:55.439Z,48.22
2018-12-15T01:08:57.223Z,48.40
2018-12-15T01:09:59.053Z,48.24
2018-12-15T01:11:00.823Z,48.02
2018-12-15T01:12:02.611Z,48.25
2018-12-15T01:13:04.388Z,47.96
2018-12-15T01:14:06.201Z,48.04
2018-12-15T01:15:07.981Z,47.84
2018-12-15T01:16:09.929Z,47.61
2018-12-15T01:17:11.742Z,47.70
2018-12-15T01:18:13.520Z,47.96
2018-12-15T01:19:15.297Z,47.77
2018-12-15T01:20:17.070Z,48.35
2018-12-15T01:21:18.843Z,48.50
2018-12-15T01:22:20.669Z,48.03
2018-12-15T01:23:22.430Z,48.22
2018-12-15T01:24:24.212Z,48.43
2018-12-15T01:25:25.990Z,48.10
2018-12-15T01:26:27.792Z,48.58
2018-12-15T01:27:29.578Z,48.17
2018-12-15T01:28:31.401Z,48.22
2018-12-15T01:29:33.192Z,47.99
2018-12-15T01:30:34.938Z,48.14
2018-12-15T01:31:36.682Z,48.41
2018-12-15T01:32:38.598Z,47.86
2018-12-15T01:33:40.400Z,48.36
2018-12-15T01:34:42.180Z,48.12
2018-12-15T01:35:43.964Z,48.33
2018-12-15T01:36:45.780Z,48.31
2018-12-15T01:37:47.581Z,48.44
2018-12-15T01:38:49.347Z,48.33
2018-12-15T01:39:51.113Z,47.96
2018-12-15T01:40:52.940Z,48.17
2018-12-15T01:41:54.730Z,47.87
2018-12-15T01:42:56.504Z,47.92
2018-12-15T01:43:58.264Z,48.26
2018-12-15T01:45:00.035Z,48.37
2018-12-15T01:46:01.792Z,48.46
2018-12-15T01:47:03.565Z,47.83
2018-12-15T01:48:05.360Z,48.55
2018-12-15T01:49:07.144Z,48.18
2018-12-15T01:50:08.909Z,47.88
2018-12-15T01:51:10.696Z,48.18
2018-12-15T01:52:12.461Z,48.02
2018-12-15T01:53:14.274Z,47.74
2018-12-15T01:54:16.054Z,47.66
2018-12-15T01:55:17.851Z,48.23
2018-12-15T01:56:19.646Z,47.86
2018-12-15T01:57:21.419Z,48.06
2018-12-15T01:58:23.173Z,48.12
2018-12-15T01:59:24.931Z,48.15
2018-12-15T02:00:26.757Z,48.26
2018-12-15T02:01:28.512Z,48.04
2018-12-15T02:02:30.263Z,47.91
2018-12-15T02:03:32.057Z,48.25
2018-12-15T02:04:33.825Z,47.78
2018-12-15T02:05:35.601Z,47.87
2018-12-15T02:06:37.853Z,48.12
2018-12-15T02:07:39.643Z,47.77
2018-12-15T02:08:41.428Z,48.20
2018-12-15T02:09:43.225Z,48.31
2018-12-15T02:10:45.004Z,48.09
2018-12-15T02:11:46.770Z,48.12
2018-12-15T02:12:48.551Z,48.08
2018-12-15T02:13:50.344Z,47.77
2018-12-15T02:14:52.101Z,48.22
2018-12-15T02:15:53.859Z,47.90
2018-12-15T02:16:55.651Z,47.86
2018-12-15T02:17:57.429Z,48.14
2018-12-15T02:18:59.238Z,48.29
2018-12-15T02:20:01.009Z,48.16
2018-12-15T02:21:02.763Z,48.34
2018-12-15T02:22:04.547Z,47.98
2018-12-15T02:23:06.308Z,48.21
2018-12-15T02:24:08.129Z,47.84
2018-12-15T02:25:10.037Z,48.23
2018-12-15T02:26:13.380Z,48.19
2018-12-15T02:27:15.237Z,48.52
2018-12-15T02:28:16.997Z,47.78
2018-12-15T02:29:18.780Z,48.12
2018-12-15T02:30:20.575Z,48.02
2018-12-15T02:31:23.819Z,48.19
2018-12-15T02:32:25.587Z,47.96
2018-12-15T02:33:28.487Z,47.74
2018-12-15T02:34:30.308Z,47.84
2018-12-15T02:35:32.051Z,48.20
2018-12-15T02:36:33.826Z,48.18
2018-12-15T02:37:36.370Z,48.00
2018-12-15T02:38:38.217Z,47.96
2018-12-15T02:39:40.548Z,48.19
2018-12-15T02:40:42.293Z,48.25
2018-12-15T02:41:47.404Z,47.95
2018-12-15T02:42:47.891Z,47.99
2018-12-15T02:43:49.678Z,48.14
2018-12-15T02:44:51.475Z,47.89
2018-12-15T02:45:53.246Z,47.57
2018-12-15T02:46:55.021Z,47.88
2018-12-15T02:47:56.845Z,48.15
2018-12-15T02:48:58.654Z,47.61
2018-12-15T02:50:00.428Z,48.11
2018-12-15T02:51:02.234Z,47.63
2018-12-15T02:52:04.086Z,48.10
2018-12-15T02:53:05.883Z,47.96
2018-12-15T02:54:08.056Z,47.92
2018-12-15T02:55:09.896Z,47.75
2018-12-15T02:56:11.657Z,47.79
2018-12-15T02:57:13.410Z,48.00
2018-12-15T02:58:15.177Z,47.91
2018-12-15T02:59:16.953Z,48.06
2018-12-15T03:00:18.751Z,47.83
2018-12-15T03:01:20.619Z,47.86
2018-12-15T03:02:22.401Z,48.08
2018-12-15T03:03:24.192Z,48.11
2018-12-15T03:04:27.307Z,48.31
2018-12-15T03:05:29.103Z,47.90
2018-12-15T03:06:30.909Z,48.04
2018-12-15T03:07:32.667Z,47.90
2018-12-15T03:08:35.931Z,48.25
2018-12-15T03:09:37.741Z,47.88
2018-12-15T03:10:39.533Z,48.21
2018-12-15T03:11:41.289Z,47.62
2018-12-15T03:12:43.045Z,48.32
2018-12-15T03:13:44.811Z,48.10
2018-12-15T03:14:46.571Z,48.12
2018-12-15T03:15:48.874Z,48.12
2018-12-15T03:16:50.631Z,47.90
2018-12-15T03:17:52.410Z,47.93
2018-12-15T03:18:54.176Z,48.04
2018-12-15T03:19:55.924Z,47.48
2018-12-15T03:20:59.126Z,47.79
2018-12-15T03:22:00.894Z,48.33
2018-12-15T03:23:02.650Z,47.94
2018-12-15T03:24:04.429Z,47.73
2018-12-15T03:25:06.219Z,48.09
2018-12-15T03:26:08.079Z,47.81
2018-12-15T03:27:09.941Z,47.84
2018-12-15T03:28:11.709Z,48.06
2018-12-15T03:29:13.476Z,48.22
2018-12-15T03:30:15.748Z,48.38
2018-12-15T03:31:17.556Z,47.67
2018-12-15T03:32:19.312Z,48.20
2018-12-15T03:33:21.140Z,48.04
2018-12-15T03:34:22.908Z,47.68
2018-12-15T03:35:24.674Z,47.65
2018-12-15T03:36:26.545Z,47.80
2018-12-15T03:37:28.290Z,47.84
2018-12-15T03:38:30.054Z,47.58
2018-12-15T03:39:31.802Z,47.99
2018-12-15T03:40:33.595Z,48.29
2018-12-15T03:41:35.520Z,48.25
2018-12-15T03:42:37.365Z,47.92
2018-12-15T03:43:39.111Z,47.75
2018-12-15T03:44:40.856Z,47.74
2018-12-15T03:45:42.637Z,47.83
2018-12-15T03:46:44.491Z,48.29
2018-12-15T03:47:46.266Z,48.16
2018-12-15T03:48:48.026Z,48.26
2018-12-15T03:49:49.792Z,47.98
2018-12-15T03:50:51.544Z,48.15
2018-12-15T03:51:53.322Z,47.88
2018-12-15T03:52:55.088Z,47.36
2018-12-15T03:53:56.875Z,48.14
2018-12-15T03:54:58.683Z,47.48
2018-12-15T03:56:00.446Z,47.54
2018-12-15T03:57:02.223Z,48.03
2018-12-15T03:58:04.025Z,48.06
2018-12-15T03:59:05.802Z,47.78
2018-12-15T04:00:07.578Z,47.94
2018-12-15T04:01:09.335Z,47.71
2018-12-15T04:02:11.194Z,47.72
2018-12-15T04:03:12.963Z,47.90
2018-12-15T04:04:14.814Z,47.84
2018-12-15T04:05:18.048Z,47.82
2018-12-15T04:06:19.822Z,47.90
2018-12-15T04:07:21.691Z,48.08
2018-12-15T04:08:23.466Z,47.81
2018-12-15T04:09:25.232Z,47.55
2018-12-15T04:10:27.882Z,48.09
2018-12-15T04:11:29.650Z,47.74
2018-12-15T04:12:31.424Z,47.56
2018-12-15T04:13:33.235Z,47.80
2018-12-15T04:14:35.002Z,47.78
2018-12-15T04:15:36.794Z,47.80
2018-12-15T04:16:38.548Z,47.42
2018-12-15T04:17:40.342Z,47.89
2018-12-15T04:18:42.111Z,48.00
2018-12-15T04:19:43.872Z,47.77
2018-12-15T04:20:45.784Z,47.58
2018-12-15T04:21:47.622Z,47.25
2018-12-15T04:22:49.457Z,48.12
2018-12-15T04:23:51.233Z,47.79
2018-12-15T04:24:52.990Z,47.19
2018-12-15T04:25:54.753Z,47.38
2018-12-15T04:26:56.549Z,47.26
2018-12-15T04:27:58.375Z,47.85
2018-12-15T04:29:00.617Z,47.76
2018-12-15T04:30:03.651Z,48.13
2018-12-15T04:31:05.445Z,47.41
2018-12-15T04:32:07.259Z,48.31
2018-12-15T04:33:09.033Z,47.46
2018-12-15T04:34:10.824Z,47.62
2018-12-15T04:35:13.999Z,47.82
2018-12-15T04:36:15.782Z,47.45
2018-12-15T04:37:18.673Z,47.87
2018-12-15T04:38:20.557Z,47.17
2018-12-15T04:39:22.297Z,48.02
2018-12-15T04:40:24.144Z,47.78
2018-12-15T04:41:25.983Z,47.49
2018-12-15T04:42:27.828Z,48.04
2018-12-15T04:43:29.631Z,47.31
2018-12-15T04:44:31.426Z,47.47
2018-12-15T04:45:33.369Z,47.98
2018-12-15T04:46:35.149Z,47.91
2018-12-15T04:47:36.899Z,48.04
2018-12-15T04:48:38.710Z,47.53
2018-12-15T04:49:40.476Z,47.68
2018-12-15T04:50:42.260Z,47.97
2018-12-15T04:51:44.035Z,47.45
2018-12-15T04:52:45.835Z,47.48
2018-12-15T04:53:47.642Z,47.54
2018-12-15T04:54:49.455Z,47.80
2018-12-15T04:55:51.227Z,46.84
2018-12-15T04:56:53.027Z,47.65
2018-12-15T04:57:54.812Z,47.19
2018-12-15T04:58:56.603Z,47.52
2018-12-15T04:59:58.553Z,47.24
2018-12-15T05:01:00.308Z,47.48
2018-12-15T05:02:02.055Z,47.94
2018-12-15T05:03:03.828Z,47.52
2018-12-15T05:04:05.666Z,47.57
2018-12-15T05:05:07.499Z,47.41
2018-12-15T05:06:09.257Z,47.42
2018-12-15T05:07:11.008Z,47.25
2018-12-15T05:08:12.786Z,47.66
2018-12-15T05:09:14.561Z,47.37
2018-12-15T05:10:16.361Z,47.58
2018-12-15T05:11:18.137Z,47.64
2018-12-15T05:12:21.062Z,47.45
2018-12-15T05:13:22.820Z,47.66
2018-12-15T05:14:24.617Z,47.46
2018-12-15T05:15:26.418Z,47.39
2018-12-15T05:16:28.157Z,47.46
2018-12-15T05:17:29.923Z,47.87
2018-12-15T05:18:31.691Z,47.58
2018-12-15T05:19:33.533Z,47.33
2018-12-15T05:20:35.321Z,47.52
2018-12-15T05:21:37.091Z,47.07
2018-12-15T05:22:38.845Z,47.43
2018-12-15T05:23:40.599Z,47.64
2018-12-15T05:24:43.955Z,47.42
2018-12-15T05:25:45.719Z,47.64
2018-12-15T05:26:47.480Z,47.39
2018-12-15T05:27:49.262Z,47.54
2018-12-15T05:28:51.030Z,47.33
2018-12-15T05:29:52.830Z,46.97
2018-12-15T05:30:54.601Z,47.27
2018-12-15T05:31:56.861Z,47.62
2018-12-15T05:32:58.608Z,47.41
2018-12-15T05:34:00.381Z,47.62
2018-12-15T05:35:02.201Z,47.67
2018-12-15T05:36:04.053Z,47.41
2018-12-15T05:37:05.926Z,47.23
2018-12-15T05:38:07.692Z,47.47
2018-12-15T05:39:09.445Z,47.70
2018-12-15T05:40:11.243Z,47.53
2018-12-15T05:41:19.460Z,47.23
2018-12-15T05:42:21.222Z,47.90
2018-12-15T05:43:22.986Z,47.68
2018-12-15T05:44:24.746Z,47.44
2018-12-15T05:45:26.557Z,47.06
2018-12-15T05:46:28.390Z,47.53
2018-12-15T05:47:30.172Z,47.73
2018-12-15T05:48:36.199Z,47.79
2018-12-15T05:49:37.962Z,47.47
2018-12-15T05:50:39.744Z,47.52
2018-12-15T05:51:41.508Z,47.49
2018-12-15T05:52:43.252Z,47.71
2018-12-15T05:53:45.022Z,48.00
2018-12-15T05:54:46.817Z,47.71
2018-12-15T05:55:48.594Z,47.47
2018-12-15T05:56:50.378Z,47.54
2018-12-15T05:57:52.133Z,47.75
2018-12-15T05:58:53.888Z,48.16
2018-12-15T05:59:55.657Z,48.07
2018-12-15T06:00:57.541Z,48.02
2018-12-15T06:02:00.465Z,47.72
2018-12-15T06:03:02.224Z,47.39
2018-12-15T06:04:04.002Z,47.69
2018-12-15T06:05:05.951Z,47.86
2018-12-15T06:06:07.740Z,47.96
2018-12-15T06:07:09.500Z,47.57
2018-12-15T06:08:11.275Z,47.54
2018-12-15T06:09:13.047Z,47.85
2018-12-15T06:10:14.846Z,47.95
2018-12-15T06:11:16.635Z,47.94
2018-12-15T06:12:18.417Z,47.69
2018-12-15T06:13:20.202Z,47.92
2018-12-15T06:14:21.997Z,48.08
2018-12-15T06:15:23.754Z,47.47
2018-12-15T06:16:25.548Z,47.99
2018-12-15T06:17:27.348Z,47.18
2018-12-15T06:18:31.742Z,48.00
2018-12-15T06:19:32.927Z,47.98
2018-12-15T06:20:34.681Z,47.65
2018-12-15T06:21:36.476Z,47.43
2018-12-15T06:22:38.221Z,47.21
2018-12-15T06:23:39.983Z,47.45
2018-12-15T06:24:41.809Z,47.73
2018-12-15T06:25:43.582Z,47.98
2018-12-15T06:26:45.386Z,47.36
2018-12-15T06:27:47.149Z,47.00
2018-12-15T06:28:48.924Z,47.57
2018-12-15T06:29:50.670Z,47.95
2018-12-15T06:30:52.420Z,47.14
2018-12-15T06:31:54.195Z,47.55
2018-12-15T06:32:57.025Z,47.55
2018-12-15T06:33:58.806Z,47.35
2018-12-15T06:35:00.578Z,47.71
2018-12-15T06:36:02.334Z,47.35
2018-12-15T06:37:04.141Z,47.53
2018-12-15T06:38:05.907Z,47.01
2018-12-15T06:39:07.755Z,47.54
2018-12-15T06:40:09.547Z,47.74
2018-12-15T06:41:11.329Z,47.66
2018-12-15T06:42:13.127Z,47.73
2018-12-15T06:43:14.898Z,47.10
2018-12-15T06:44:16.655Z,47.35
2018-12-15T06:45:18.457Z,47.26
2018-12-15T06:46:20.210Z,47.58
2018-12-15T06:47:22.011Z,47.53
2018-12-15T06:48:23.851Z,47.32
2018-12-15T06:49:26.284Z,48.11
2018-12-15T06:50:28.069Z,47.64
2018-12-15T06:51:29.833Z,47.77
2018-12-15T06:52:31.702Z,47.06
2018-12-15T06:53:33.480Z,47.41
2018-12-15T06:54:35.486Z,46.93
2018-12-15T06:55:37.281Z,47.39
2018-12-15T06:56:39.049Z,47.38
2018-12-15T06:57:40.823Z,47.50
2018-12-15T06:58:43.760Z,47.08
2018-12-15T06:59:45.536Z,47.58
2018-12-15T07:00:47.329Z,47.61
2018-12-15T07:01:49.121Z,47.64
2018-12-15T07:02:50.893Z,47.57
2018-12-15T07:03:52.656Z,47.34
2018-12-15T07:04:54.402Z,47.31
2018-12-15T07:05:56.667Z,47.10
2018-12-15T07:06:58.467Z,47.81
2018-12-15T07:08:00.263Z,47.59
2018-12-15T07:09:02.041Z,47.28
2018-12-15T07:10:03.818Z,47.71
2018-12-15T07:11:05.619Z,47.23
2018-12-15T07:12:07.496Z,47.09
2018-12-15T07:13:09.384Z,47.56
2018-12-15T07:14:11.164Z,47.37
2018-12-15T07:15:12.927Z,47.79
2018-12-15T07:16:14.705Z,47.70
2018-12-15T07:17:16.576Z,47.53
2018-12-15T07:18:18.337Z,47.85
2018-12-15T07:19:20.107Z,47.16
2018-12-15T07:20:21.897Z,47.66
2018-12-15T07:21:25.212Z,47.59
2018-12-15T07:22:27.003Z,47.87
2018-12-15T07:23:28.806Z,47.15
2018-12-15T07:24:30.567Z,47.72
2018-12-15T07:25:33.029Z,47.28
2018-12-15T07:26:34.788Z,47.51
2018-12-15T07:27:36.570Z,47.43
2018-12-15T07:28:38.378Z,47.88
2018-12-15T07:29:40.148Z,47.32
2018-12-15T07:30:41.923Z,47.32
2018-12-15T07:31:43.691Z,47.40
2018-12-15T07:32:45.431Z,47.28
2018-12-15T07:33:47.223Z,47.44
2018-12-15T07:34:49.085Z,47.33
2018-12-15T07:35:51.369Z,47.58
2018-12-15T07:36:53.149Z,47.35
2018-12-15T07:37:54.913Z,47.47
2018-12-15T07:38:56.726Z,47.34
2018-12-15T07:39:58.488Z,47.94
2018-12-15T07:41:00.243Z,47.40
2018-12-15T07:42:02.009Z,47.61
2018-12-15T07:43:04.866Z,47.47
2018-12-15T07:44:06.694Z,47.28
2018-12-15T07:45:08.474Z,47.32
2018-12-15T07:46:10.277Z,47.44
2018-12-15T07:47:12.061Z,47.59
2018-12-15T07:48:13.841Z,47.73
2018-12-15T07:49:15.672Z,47.16
2018-12-15T07:50:17.441Z,46.77
2018-12-15T07:51:19.741Z,47.30
2018-12-15T07:52:21.567Z,47.27
2018-12-15T07:53:23.450Z,47.32
2018-12-15T07:54:25.239Z,47.29
2018-12-15T07:55:27.671Z,47.24
2018-12-15T07:56:29.467Z,47.53
2018-12-15T07:57:31.260Z,47.69
2018-12-15T07:58:33.042Z,47.74
2018-12-15T07:59:34.851Z,47.08
2018-12-15T08:00:36.664Z,46.93
2018-12-15T08:01:38.455Z,47.73
2018-12-15T08:02:40.239Z,47.47
2018-12-15T08:03:43.683Z,47.42
2018-12-15T08:04:45.545Z,47.08
2018-12-15T08:05:47.317Z,47.33
2018-12-15T08:06:49.076Z,47.33
2018-12-15T08:07:50.843Z,47.52
2018-12-15T08:08:52.646Z,47.39
2018-12-15T08:09:54.531Z,47.29
2018-12-15T08:11:01.803Z,47.21
2018-12-15T08:12:09.076Z,46.93
2018-12-15T08:13:15.378Z,47.76
2018-12-15T08:14:17.232Z,47.62
2018-12-15T08:15:19.015Z,47.22
2018-12-15T08:16:20.900Z,47.01
2018-12-15T08:17:22.641Z,47.29
2018-12-15T08:18:24.402Z,47.25
2018-12-15T08:19:26.165Z,46.94
2018-12-15T08:20:28.029Z,47.50
2018-12-15T08:21:29.803Z,47.42
2018-12-15T08:22:31.570Z,47.31
2018-12-15T08:23:33.352Z,47.30
2018-12-15T08:24:35.114Z,47.09
2018-12-15T08:25:36.994Z,47.17
2018-12-15T08:26:38.820Z,46.76
2018-12-15T08:27:40.625Z,47.07
2018-12-15T08:28:42.420Z,46.97
2018-12-15T08:29:45.481Z,47.22
2018-12-15T08:30:47.336Z,47.48
2018-12-15T08:31:49.097Z,47.12
2018-12-15T08:32:50.853Z,47.25
2018-12-15T08:33:52.641Z,47.65
2018-12-15T08:34:54.408Z,47.58
2018-12-15T08:35:56.183Z,47.78
2018-12-15T08:36:58.003Z,47.20
2018-12-15T08:37:59.808Z,47.28
2018-12-15T08:39:01.570Z,47.34
2018-12-15T08:40:03.345Z,47.16
2018-12-15T08:41:05.192Z,47.38
2018-12-15T08:42:07.039Z,47.17
2018-12-15T08:43:08.860Z,47.33
2018-12-15T08:44:10.647Z,47.34
2018-12-15T08:45:12.535Z,47.44
2018-12-15T08:46:16.372Z,47.36
2018-12-15T08:47:18.150Z,47.40
2018-12-15T08:48:20.183Z,47.29
2018-12-15T08:49:21.951Z,47.65
2018-12-15T08:50:23.733Z,47.79
2018-12-15T08:51:26.180Z,47.63
2018-12-15T08:52:27.950Z,47.03
2018-12-15T08:53:30.638Z,46.84
2018-12-15T08:54:32.497Z,46.87
2018-12-15T08:55:34.255Z,47.39
2018-12-15T08:56:36.035Z,47.54
2018-12-15T08:57:37.816Z,47.48
2018-12-15T08:58:39.598Z,47.19
2018-12-15T08:59:41.354Z,47.45
2018-12-15T09:00:43.214Z,47.29
2018-12-15T09:01:45.032Z,47.34
2018-12-15T09:02:46.798Z,47.26
2018-12-15T09:03:48.630Z,47.52
2018-12-15T09:04:50.418Z,47.27
2018-12-15T09:05:52.286Z,47.59
2018-12-15T09:06:54.093Z,47.33
2018-12-15T09:07:55.887Z,47.40
2018-12-15T09:08:57.660Z,47.44
2018-12-15T09:09:59.423Z,47.64
2018-12-15T09:11:01.204Z,47.08
2018-12-15T09:12:03.051Z,47.32
2018-12-15T09:13:04.869Z,47.14
2018-12-15T09:14:06.755Z,47.15
2018-12-15T09:15:08.771Z,47.09
2018-12-15T09:16:10.547Z,47.43
2018-12-15T09:17:12.405Z,47.23
2018-12-15T09:18:14.193Z,47.29
2018-12-15T09:19:15.986Z,47.75
2018-12-15T09:20:17.737Z,47.07
2018-12-15T09:21:19.505Z,46.86
2018-12-15T09:22:21.321Z,47.59
2018-12-15T09:23:23.143Z,47.13
2018-12-15T09:24:24.927Z,47.18
2018-12-15T09:25:26.751Z,47.42
2018-12-15T09:26:28.513Z,46.77
2018-12-15T09:27:30.335Z,46.66
2018-12-15T09:28:32.154Z,47.05
2018-12-15T09:29:33.921Z,46.82
2018-12-15T09:30:35.673Z,46.99
2018-12-15T09:31:37.516Z,46.97
2018-12-15T09:32:39.297Z,47.42
2018-12-15T09:33:41.057Z,46.97
2018-12-15T09:34:42.827Z,46.72
2018-12-15T09:35:44.591Z,47.09
2018-12-15T09:36:46.369Z,46.94
2018-12-15T09:37:48.177Z,46.98
2018-12-15T09:38:49.952Z,46.81
2018-12-15T09:39:51.723Z,46.94
2018-12-15T09:40:53.492Z,46.95
2018-12-15T09:41:55.239Z,47.20
2018-12-15T09:42:57.035Z,47.05
2018-12-15T09:43:58.801Z,46.86
2018-12-15T09:45:00.577Z,47.11
2018-12-15T09:46:02.424Z,47.46
2018-12-15T09:47:04.201Z,47.16
2018-12-15T09:48:06.132Z,47.17
2018-12-15T09:49:07.939Z,46.84
2018-12-15T09:50:09.723Z,47.07
2018-12-15T09:51:11.506Z,47.21
2018-12-15T09:52:13.259Z,47.10
2018-12-15T09:53:15.039Z,46.79
2018-12-15T09:54:16.805Z,46.72
2018-12-15T09:55:18.551Z,46.93
2018-12-15T09:56:20.318Z,47.70
2018-12-15T09:57:22.115Z,47.19
2018-12-15T09:58:23.913Z,47.39
2018-12-15T09:59:25.671Z,47.07
2018-12-15T10:00:27.473Z,47.03
2018-12-15T10:01:29.232Z,46.62
2018-12-15T10:02:31.000Z,47.12
2018-12-15T10:03:32.789Z,47.03
2018-12-15T10:04:34.552Z,47.09
2018-12-15T10:05:36.321Z,47.13
2018-12-15T10:06:38.091Z,46.87
2018-12-15T10:07:39.844Z,47.25
2018-12-15T10:08:42.196Z,46.73
2018-12-15T10:09:43.951Z,47.04
2018-12-15T10:10:45.708Z,47.24
2018-12-15T10:11:47.586Z,47.30
2018-12-15T10:12:49.343Z,46.97
2018-12-15T10:13:51.129Z,47.45
2018-12-15T10:14:52.969Z,47.34
2018-12-15T10:15:54.715Z,47.34
2018-12-15T10:16:56.474Z,47.52
2018-12-15T10:17:58.228Z,47.55
2018-12-15T10:19:00.052Z,47.00
2018-12-15T10:20:01.809Z,47.14
2018-12-15T10:21:03.558Z,46.81
2018-12-15T10:22:06.753Z,47.25
2018-12-15T10:23:08.508Z,47.56
2018-12-15T10:24:10.280Z,46.51
2018-12-15T10:25:12.049Z,47.38
2018-12-15T10:26:13.819Z,47.53
2018-12-15T10:27:15.639Z,46.99
2018-12-15T10:28:17.397Z,47.04
2018-12-15T10:29:24.741Z,46.76
2018-12-15T10:30:31.965Z,47.24
2018-12-15T10:31:40.234Z,47.43
2018-12-15T10:32:47.564Z,47.26
2018-12-15T10:33:49.346Z,47.33
2018-12-15T10:34:51.118Z,47.15
2018-12-15T10:35:52.891Z,47.12
2018-12-15T10:36:54.654Z,47.00
2018-12-15T10:37:56.412Z,47.26
2018-12-15T10:38:58.187Z,47.11
2018-12-15T10:40:00.633Z,47.14
2018-12-15T10:41:02.397Z,47.13
2018-12-15T10:42:04.166Z,47.10
2018-12-15T10:43:05.921Z,47.30
2018-12-15T10:44:07.683Z,47.13
2018-12-15T10:45:09.473Z,47.05
2018-12-15T10:46:11.231Z,47.03
2018-12-15T10:47:13.111Z,47.12
2018-12-15T10:48:14.872Z,46.99
2018-12-15T10:49:16.634Z,46.74
2018-12-15T10:50:18.427Z,47.36
2018-12-15T10:51:20.210Z,46.86
2018-12-15T10:52:21.974Z,47.14
2018-12-15T10:53:23.743Z,46.89
2018-12-15T10:54:25.484Z,47.16
2018-12-15T10:55:27.337Z,47.11
2018-12-15T10:56:29.162Z,46.93
2018-12-15T10:57:30.928Z,47.12
2018-12-15T10:58:32.677Z,47.10
2018-12-15T10:59:35.640Z,47.04
2018-12-15T11:00:42.853Z,46.65
2018-12-15T11:01:44.611Z,46.48
2018-12-15T11:02:46.368Z,46.73
2018-12-15T11:03:48.136Z,46.66
2018-12-15T11:04:49.909Z,46.99
2018-12-15T11:05:51.742Z,47.27
2018-12-15T11:06:53.508Z,46.94
2018-12-15T11:07:55.277Z,46.72
2018-12-15T11:08:57.056Z,47.05
2018-12-15T11:09:58.798Z,46.76
2018-12-15T11:11:00.575Z,47.39
2018-12-15T11:12:02.509Z,47.04
2018-12-15T11:13:04.252Z,46.78
2018-12-15T11:14:06.000Z,46.95
2018-12-15T11:15:08.325Z,46.91
2018-12-15T11:16:10.144Z,47.12
2018-12-15T11:17:11.898Z,46.96
2018-12-15T11:18:13.660Z,47.00
2018-12-15T11:19:15.425Z,47.16
2018-12-15T11:20:17.176Z,47.27
2018-12-15T11:21:18.971Z,46.73
2018-12-15T11:22:20.758Z,47.01
2018-12-15T11:23:25.150Z,47.04
2018-12-15T11:24:26.914Z,47.15
2018-12-15T11:25:29.547Z,46.81
2018-12-15T11:26:31.442Z,46.96
2018-12-15T11:27:33.177Z,46.49
2018-12-15T11:28:34.933Z,46.64
2018-12-15T11:29:36.691Z,47.01
2018-12-15T11:30:38.515Z,47.17
2018-12-15T11:31:40.348Z,46.65
2018-12-15T11:32:43.250Z,46.79
2018-12-15T11:33:45.007Z,46.80
2018-12-15T11:34:46.770Z,46.79
2018-12-15T11:35:48.534Z,47.21
2018-12-15T11:36:50.408Z,46.74
2018-12-15T11:37:52.176Z,46.89
2018-12-15T11:38:53.957Z,46.99
2018-12-15T11:39:55.736Z,47.23
2018-12-15T11:40:57.503Z,46.96
2018-12-15T11:41:59.291Z,46.93
2018-12-15T11:43:02.505Z,46.64
2018-12-15T11:44:04.266Z,46.66
2018-12-15T11:45:06.043Z,46.76
2018-12-15T11:46:07.803Z,46.40
2018-12-15T11:47:09.606Z,46.79
2018-12-15T11:48:11.352Z,47.09
2018-12-15T11:49:13.105Z,46.44
2018-12-15T11:50:14.878Z,46.79
2018-12-15T11:51:16.622Z,46.29
2018-12-15T11:52:18.433Z,46.71
2018-12-15T11:53:20.199Z,46.36
2018-12-15T11:54:21.954Z,46.79
2018-12-15T11:55:23.701Z,46.49
2018-12-15T11:56:25.471Z,47.08
2018-12-15T11:57:27.263Z,46.63
2018-12-15T11:58:29.032Z,46.64
2018-12-15T11:59:30.779Z,46.62
2018-12-15T12:00:32.535Z,46.29
2018-12-15T12:01:34.284Z,46.49
2018-12-15T12:02:36.106Z,46.39
2018-12-15T12:03:37.861Z,46.62
2018-12-15T12:04:39.697Z,46.64
2018-12-15T12:05:41.526Z,46.84
2018-12-15T12:06:43.281Z,46.46
2018-12-15T12:07:45.070Z,46.76
2018-12-15T12:08:46.848Z,47.00
2018-12-15T12:09:48.631Z,46.88
2018-12-15T12:10:50.395Z,46.44
2018-12-15T12:11:52.172Z,46.50
2018-12-15T12:12:53.966Z,47.06
2018-12-15T12:14:00.351Z,46.48
2018-12-15T12:14:59.504Z,47.18
2018-12-15T12:16:01.764Z,46.42
2018-12-15T12:17:03.523Z,47.10
2018-12-15T12:18:05.319Z,47.19
2018-12-15T12:19:07.067Z,46.38
2018-12-15T12:20:08.845Z,47.08
2018-12-15T12:21:10.617Z,46.41
2018-12-15T12:22:12.376Z,47.21
2018-12-15T12:23:14.150Z,46.70
2018-12-15T12:24:16.019Z,47.28
2018-12-15T12:25:17.778Z,47.63
2018-12-15T12:26:19.551Z,47.17
2018-12-15T12:27:21.305Z,47.38
2018-12-15T12:28:23.218Z,47.82
2018-12-15T12:29:24.974Z,47.52
2018-12-15T12:30:26.937Z,47.52
2018-12-15T12:31:28.825Z,47.51
2018-12-15T12:32:30.600Z,47.46
2018-12-15T12:33:32.369Z,47.05
2018-12-15T12:34:34.167Z,47.75
2018-12-15T12:35:35.908Z,47.04
2018-12-15T12:36:37.810Z,47.49
2018-12-15T12:37:39.625Z,47.57
2018-12-15T12:38:41.428Z,47.54
2018-12-15T12:39:43.196Z,47.70
2018-12-15T12:40:44.948Z,47.68
2018-12-15T12:41:46.770Z,47.72
2018-12-15T12:42:48.552Z,47.93
2018-12-15T12:43:50.342Z,48.00
2018-12-15T12:44:52.103Z,47.75
2018-12-15T12:45:53.862Z,47.52
2018-12-15T12:46:55.616Z,47.60
2018-12-15T12:47:57.383Z,47.77
2018-12-15T12:48:59.166Z,47.75
2018-12-15T12:50:00.904Z,48.17
2018-12-15T12:51:02.662Z,47.59
2018-12-15T12:52:04.424Z,48.14
2018-12-15T12:53:06.170Z,47.62
2018-12-15T12:54:07.969Z,47.86
2018-12-15T12:55:09.715Z,48.28
2018-12-15T12:56:11.480Z,47.57
2018-12-15T12:57:13.249Z,48.15
2018-12-15T12:58:15.022Z,48.03
2018-12-15T12:59:16.820Z,47.54
2018-12-15T13:00:18.568Z,48.55
2018-12-15T13:01:20.340Z,47.52
2018-12-15T13:02:22.098Z,47.82
2018-12-15T13:03:24.108Z,47.97
2018-12-15T13:04:25.894Z,47.49
2018-12-15T13:05:27.666Z,48.19
2018-12-15T13:06:29.417Z,48.17
2018-12-15T13:07:31.199Z,47.85
2018-12-15T13:08:32.949Z,47.87
2018-12-15T13:09:34.754Z,48.23
2018-12-15T13:10:36.558Z,47.83
2018-12-15T13:11:38.321Z,47.98
2018-12-15T13:12:40.097Z,48.07
2018-12-15T13:13:41.867Z,47.56
2018-12-15T13:14:43.666Z,47.66
2018-12-15T13:15:45.441Z,47.66
2018-12-15T13:16:47.194Z,47.06
2018-12-15T13:17:48.948Z,47.62